Time;durP1;ratioP1;P1;durP2;ratioP2;P2;SDS_P1;SDS_P2;PMS_P1;PMS_P2;Temp;Humidity;BMP_temperature;BMP_pressure;BME280_temperature;BME280_humidity;BME280_pressure;Samples;Min_cycle;Max_cycle;Signal;HPM_P1;HPM_P2
2023/09/25 00:00:43;;;;;;;;;;;;;;;11.43;45.02;101907.22;4949302;28;99982;-56
2023/09/25 00:03:09;;;;;;;;;;;;;;;11.41;45.09;101901.25;4975738;27;98470;-61
2023/09/25 00:05:36;;;;;;;;;;;;;;;11.40;45.16;101905.03;4940588;28;98290;-56
2023/09/25 00:08:02;;;;;;;;;;;;;;;11.38;45.01;101905.25;4927391;28;100034;-55
2023/09/25 00:10:29;;;;;;;;;;;;;;;11.36;44.84;101901.13;4974046;27;98423;-61
2023/09/25 00:12:55;;;;;;;;;;;;;;;11.34;44.75;101903.28;4931059;28;98418;-61
2023/09/25 00:15:21;;;;;;;;;;;;;;;11.31;45.16;101904.56;4946273;28;98373;-61
2023/09/25 00:17:48;;;;;;;;;;;;;;;11.28;44.90;101902.34;4959464;28;129816;-55
2023/09/25 00:20:15;;;;;;;;;;;;;;;11.27;44.90;101906.91;4964709;28;100116;-56
2023/09/25 00:22:41;;;;;;;;;;;;;;;11.25;45.05;101905.53;4947803;28;99279;-61
2023/09/25 00:25:08;;;;;;;;;;;;;;;11.22;45.22;101901.41;4970660;27;98259;-56
2023/09/25 00:27:34;;;;;;;;;;;;;;;11.21;44.78;101893.56;4957048;28;98229;-61
2023/09/25 00:30:03;;;;;;;;;;;;;;;11.18;45.10;101889.44;4961598;28;99193;-61
2023/09/25 00:32:29;;;;;;;;;;;;;;;11.18;44.99;101885.94;4946265;28;98541;-61
2023/09/25 00:34:55;;;;;;;;;;;;;;;11.16;45.16;101885.31;4963858;28;97950;-57
2023/09/25 00:37:21;;;;;;;;;;;;;;;11.13;44.84;101883.13;4963411;28;98079;-55
2023/09/25 00:39:47;;;;;;;;;;;;;;;11.12;44.85;101881.47;4944484;28;98171;-61
2023/09/25 00:42:13;;;;;;;;;;;;;;;11.10;45.16;101884.41;4926182;28;99560;-61
2023/09/25 00:44:40;;;;;;;;;;;;;;;11.08;45.11;101883.81;4947045;28;98998;-56
2023/09/25 00:47:08;;;;;;;;;;;;;;;11.06;45.03;101885.94;4963548;28;99079;-56
2023/09/25 00:49:34;;;;;;;;;;;;;;;11.02;44.94;101884.78;4962136;28;98257;-56
2023/09/25 00:52:00;;;;;;;;;;;;;;;11.00;45.25;101882.31;4965975;28;100699;-61
2023/09/25 00:54:27;;;;;;;;;;;;;;;11.00;44.84;101886.88;4951380;28;116049;-55
2023/09/25 00:56:53;;;;;;;;;;;;;;;10.99;44.60;101896.03;4987910;27;98385;-61
2023/09/25 00:59:19;;;;;;;;;;;;;;;10.97;44.95;101903.56;4943214;28;106724;-55
2023/09/25 01:01:45;;;;;;;;;;;;;;;10.95;45.28;101906.47;4963052;28;98408;-61
2023/09/25 01:04:11;;;;;;;;;;;;;;;10.93;44.74;101900.50;4977383;27;98169;-61
2023/09/25 01:06:37;;;;;;;;;;;;;;;10.91;45.13;101897.19;4960873;28;98201;-55
2023/09/25 01:09:04;;;;;;;;;;;;;;;10.88;44.88;101892.25;4957230;28;99196;-56
2023/09/25 01:11:30;;;;;;;;;;;;;;;10.86;44.98;101894.41;4957825;28;98062;-56
2023/09/25 01:13:56;;;;;;;;;;;;;;;10.86;45.23;101886.31;4945623;28;98573;-61
2023/09/25 01:16:22;;;;;;;;;;;;;;;10.84;44.94;101888.41;4940089;28;98986;-61
2023/09/25 01:18:48;;;;;;;;;;;;;;;10.83;44.69;101884.06;4955773;28;107919;-55
2023/09/25 01:21:14;;;;;;;;;;;;;;;10.80;45.14;101884.53;4939539;28;99523;-55
2023/09/25 01:23:40;;;;;;;;;;;;;;;10.78;45.32;101882.06;4943502;28;100065;-61
2023/09/25 01:26:06;;;;;;;;;;;;;;;10.75;44.96;101881.72;4925149;28;98508;-61
2023/09/25 01:28:32;;;;;;;;;;;;;;;10.72;44.69;101872.22;4971495;27;117666;-55
2023/09/25 01:30:58;;;;;;;;;;;;;;;10.67;44.81;101882.88;4944556;28;99661;-55
2023/09/25 01:33:26;;;;;;;;;;;;;;;10.63;45.16;101880.91;4959896;28;98588;-55
2023/09/25 01:35:52;;;;;;;;;;;;;;;10.61;45.17;101880.28;4954799;28;98459;-60
2023/09/25 01:38:18;;;;;;;;;;;;;;;10.59;44.75;101877.84;4942002;28;98315;-61
2023/09/25 01:40:44;;;;;;;;;;;;;;;10.57;45.31;101878.09;4957633;28;98173;-55
2023/09/25 01:43:10;;;;;;;;;;;;;;;10.55;44.75;101874.78;4942366;28;98516;-60
2023/09/25 01:45:37;;;;;;;;;;;;;;;10.54;45.21;101872.34;4972176;27;98576;-55
2023/09/25 01:48:03;;;;;;;;;;;;;;;10.53;44.74;101870.69;4946596;28;98009;-61
2023/09/25 01:50:29;;;;;;;;;;;;;;;10.49;44.71;101870.34;4958932;28;114895;-61
2023/09/25 01:53:03;;;;;;;;;;;;;;;10.46;44.95;101864.59;4962988;28;98055;-61
2023/09/25 01:55:35;;;;;;;;;;;;;;;10.41;44.82;101859.88;4943197;28;98372;-61
2023/09/25 01:58:02;;;;;;;;;;;;;;;10.37;45.53;101857.88;4946724;28;98650;-61
2023/09/25 02:00:28;;;;;;;;;;;;;;;10.34;45.20;101861.06;4940373;28;98329;-61
2023/09/25 02:02:55;;;;;;;;;;;;;;;10.30;45.26;101860.69;4943687;28;98745;-55
2023/09/25 02:05:21;;;;;;;;;;;;;;;10.26;45.26;101851.44;4942622;28;99195;-61
2023/09/25 02:07:48;;;;;;;;;;;;;;;10.23;45.06;101841.91;4977238;27;98058;-61
2023/09/25 02:10:15;;;;;;;;;;;;;;;10.20;45.24;101844.22;4948492;28;98429;-55
2023/09/25 02:12:41;;;;;;;;;;;;;;;10.19;45.06;101839.91;4952409;28;98517;-55
2023/09/25 02:15:08;;;;;;;;;;;;;;;10.15;45.26;101841.44;4963245;28;99247;-55
2023/09/25 02:17:34;;;;;;;;;;;;;;;10.09;45.25;101838.56;4937697;28;100522;-55
2023/09/25 02:20:20;;;;;;;;;;;;;;;10.05;44.90;101839.28;4980331;27;98362;-57
2023/09/25 02:22:51;;;;;;;;;;;;;;;10.00;45.12;101841.84;4944157;28;97997;-61
2023/09/25 02:25:17;;;;;;;;;;;;;;;9.97;45.55;101836.91;4961866;28;98574;-62
2023/09/25 02:27:43;;;;;;;;;;;;;;;9.91;45.56;101838.66;4946049;28;99606;-61
2023/09/25 02:30:10;;;;;;;;;;;;;;;9.87;45.16;101840.19;4944843;28;99340;-55
2023/09/25 02:32:36;;;;;;;;;;;;;;;9.83;45.34;101845.19;4949025;28;100191;-60
2023/09/25 02:35:04;;;;;;;;;;;;;;;9.80;45.32;101842.13;4959114;28;98110;-56
2023/09/25 02:37:31;;;;;;;;;;;;;;;9.78;45.53;101844.22;4932675;28;98777;-55
2023/09/25 02:39:57;;;;;;;;;;;;;;;9.76;44.96;101841.78;4958991;28;97945;-60
2023/09/25 02:42:23;;;;;;;;;;;;;;;9.76;45.29;101840.94;4955664;28;98495;-55
2023/09/25 02:44:49;;;;;;;;;;;;;;;9.74;45.26;101840.34;4961452;28;98242;-61
2023/09/25 02:47:15;;;;;;;;;;;;;;;9.75;45.35;101842.00;4963363;28;127391;-61
2023/09/25 02:49:41;;;;;;;;;;;;;;;9.76;45.33;101843.66;4943112;28;127230;-56
2023/09/25 02:52:07;;;;;;;;;;;;;;;9.74;45.19;101840.34;4941160;28;109492;-61
2023/09/25 02:54:33;;;;;;;;;;;;;;;9.72;45.41;101845.16;4966444;28;99433;-61
2023/09/25 02:56:59;;;;;;;;;;;;;;;9.71;45.36;101843.53;4977276;27;127909;-56
2023/09/25 02:59:26;;;;;;;;;;;;;;;9.70;45.61;101841.84;4946020;28;99634;-61
2023/09/25 03:01:52;;;;;;;;;;;;;;;9.68;44.89;101833.19;4961047;28;98457;-61
2023/09/25 03:04:18;;;;;;;;;;;;;;;9.66;45.05;101837.97;4957107;28;98162;-61
2023/09/25 03:06:44;;;;;;;;;;;;;;;9.63;44.74;101836.59;4947682;28;98236;-61
2023/09/25 03:09:10;;;;;;;;;;;;;;;9.61;45.11;101835.97;4944382;28;113731;-61
2023/09/25 03:11:36;;;;;;;;;;;;;;;9.59;44.75;101838.09;4961096;28;99954;-61
2023/09/25 03:14:03;;;;;;;;;;;;;;;9.58;45.25;101836.41;4947894;28;97928;-61
2023/09/25 03:16:29;;;;;;;;;;;;;;;9.57;45.44;101840.16;4963909;28;97991;-55
2023/09/25 03:18:56;;;;;;;;;;;;;;;9.56;45.02;101838.53;4964301;28;98376;-61
2023/09/25 03:21:23;;;;;;;;;;;;;;;9.55;45.33;101837.72;4970318;28;98517;-61
2023/09/25 03:23:49;;;;;;;;;;;;;;;9.55;44.98;101839.59;4981041;27;98063;-61
2023/09/25 03:26:16;;;;;;;;;;;;;;;9.54;44.90;101836.03;4980059;27;100861;-60
2023/09/25 03:28:43;;;;;;;;;;;;;;;9.55;45.56;101835.03;4950007;28;98153;-55
2023/09/25 03:31:10;;;;;;;;;;;;;;;9.55;45.34;101836.91;4948000;28;98470;-56
2023/09/25 03:33:37;;;;;;;;;;;;;;;9.54;45.03;101832.53;4969208;28;98422;-56
2023/09/25 03:36:03;;;;;;;;;;;;;;;9.54;45.37;101827.16;4962636;28;99443;-55
2023/09/25 03:38:30;;;;;;;;;;;;;;;9.51;44.75;101827.59;4962760;28;103319;-61
2023/09/25 03:40:56;;;;;;;;;;;;;;;9.50;44.92;101834.03;4967293;28;98297;-60
2023/09/25 03:43:22;;;;;;;;;;;;;;;9.46;45.07;101828.28;4967358;28;97923;-55
2023/09/25 03:45:48;;;;;;;;;;;;;;;9.46;45.24;101827.47;4950953;28;99280;-55
2023/09/25 03:48:14;;;;;;;;;;;;;;;9.45;45.39;101832.03;4930054;28;98354;-55
2023/09/25 03:50:40;;;;;;;;;;;;;;;9.42;44.68;101820.91;4927320;28;100084;-61
2023/09/25 03:53:06;;;;;;;;;;;;;;;9.43;45.25;101834.16;4939104;28;98549;-56
2023/09/25 03:55:33;;;;;;;;;;;;;;;9.43;45.34;101836.00;4944833;28;100094;-55
2023/09/25 03:57:59;;;;;;;;;;;;;;;9.41;45.07;101838.09;4960029;28;98089;-56
2023/09/25 04:00:26;;;;;;;;;;;;;;;9.40;44.96;101831.09;4955641;28;98093;-57
2023/09/25 04:02:53;;;;;;;;;;;;;;;9.38;45.11;101820.53;4977966;27;98220;-56
2023/09/25 04:05:19;;;;;;;;;;;;;;;9.38;45.34;101822.41;4944604;28;99448;-61
2023/09/25 04:07:45;;;;;;;;;;;;;;;9.36;45.17;101827.22;4927471;28;98977;-61
2023/09/25 04:10:11;;;;;;;;;;;;;;;9.33;45.63;101826.59;4944700;28;98285;-61
2023/09/25 04:12:38;;;;;;;;;;;;;;;9.32;45.65;101819.56;4954570;28;99414;-56
2023/09/25 04:15:08;;;;;;;;;;;;;;;9.29;45.32;101820.03;4960545;28;98568;-56
2023/09/25 04:17:34;;;;;;;;;;;;;;;9.29;45.30;101824.59;4941088;28;98135;-61
2023/09/25 04:20:01;;;;;;;;;;;;;;;9.28;44.78;101820.25;4964360;28;98531;-56
2023/09/25 04:22:27;;;;;;;;;;;;;;;9.28;45.25;101822.94;4961676;28;98389;-56
2023/09/25 04:24:53;;;;;;;;;;;;;;;9.25;45.54;101821.53;4958760;27;100230;-56
2023/09/25 04:27:20;;;;;;;;;;;;;;;9.26;45.62;101825.03;4973851;27;108650;-61
2023/09/25 04:29:46;;;;;;;;;;;;;;;9.25;44.97;101826.09;4946699;28;99656;-57
2023/09/25 04:32:14;;;;;;;;;;;;;;;9.23;45.45;101830.84;4959234;28;98124;-56
2023/09/25 04:34:39;;;;;;;;;;;;;;;9.22;45.32;101823.84;4921429;28;99381;-58
2023/09/25 04:37:08;;;;;;;;;;;;;;;9.21;45.29;101819.50;4958231;28;97927;-61
2023/09/25 04:39:35;;;;;;;;;;;;;;;9.19;45.64;101827.78;4942387;28;98051;-61
2023/09/25 04:42:01;;;;;;;;;;;;;;;9.17;45.24;101829.91;4929133;28;98634;-61
2023/09/25 04:44:27;;;;;;;;;;;;;;;9.16;44.97;101828.25;4960485;28;98489;-56
2023/09/25 04:46:53;;;;;;;;;;;;;;;9.17;45.19;101829.91;4960361;28;99227;-61
2023/09/25 04:49:19;;;;;;;;;;;;;;;9.16;45.21;101816.69;4946418;28;98798;-61
2023/09/25 04:51:46;;;;;;;;;;;;;;;9.16;45.08;101822.88;4942357;28;98692;-60
2023/09/25 04:54:12;;;;;;;;;;;;;;;9.13;44.74;101817.94;4958717;28;98472;-62
2023/09/25 04:56:38;;;;;;;;;;;;;;;9.11;44.85;101820.03;4936602;28;103065;-61
2023/09/25 04:59:05;;;;;;;;;;;;;;;9.08;45.42;101824.00;4947035;28;98079;-61
2023/09/25 05:01:31;;;;;;;;;;;;;;;9.06;45.02;101822.56;4945438;28;97859;-61
2023/09/25 05:03:57;;;;;;;;;;;;;;;9.03;44.90;101821.16;4961669;28;100582;-62
2023/09/25 05:06:23;;;;;;;;;;;;;;;9.03;44.71;101823.00;4944914;28;99001;-55
2023/09/25 05:08:50;;;;;;;;;;;;;;;9.02;45.39;101824.88;4958060;28;98413;-61
2023/09/25 05:11:16;;;;;;;;;;;;;;;9.07;45.45;101818.81;4928373;28;98368;-61
2023/09/25 05:13:42;;;;;;;;;;;;;;;9.14;45.32;101821.44;4942468;28;97964;-61
2023/09/25 05:16:08;;;;;;;;;;;;;;;9.21;45.29;101825.72;4926106;28;105018;-56
2023/09/25 05:18:34;;;;;;;;;;;;;;;9.26;44.88;101827.72;4946789;28;98237;-62
2023/09/25 05:21:00;;;;;;;;;;;;;;;9.29;45.31;101825.41;4974649;27;100159;-60
2023/09/25 05:23:26;;;;;;;;;;;;;;;9.33;44.95;101834.66;4928724;28;98090;-61
2023/09/25 05:25:56;;;;;;;;;;;;;;;9.37;45.03;101823.47;4923689;28;98548;-56
2023/09/25 05:28:22;;;;;;;;;;;;;;;9.41;45.17;101822.78;4961953;28;98206;-56
2023/09/25 05:30:49;;;;;;;;;;;;;;;9.45;44.89;101823.16;4940958;28;99613;-56
2023/09/25 05:33:15;;;;;;;;;;;;;;;9.49;44.36;101824.34;4960353;28;98103;-56
2023/09/25 05:35:41;;;;;;;;;;;;;;;9.54;44.63;101829.84;4958151;28;104585;-56
2023/09/25 05:38:07;;;;;;;;;;;;;;;9.56;44.97;101825.88;4928589;28;98351;-56
2023/09/25 05:40:33;;;;;;;;;;;;;;;9.57;45.04;101822.13;4961122;28;99124;-56
2023/09/25 05:43:00;;;;;;;;;;;;;;;9.61;44.34;101813.63;4973534;27;98618;-56
2023/09/25 05:45:26;;;;;;;;;;;;;;;9.65;44.82;101812.09;4960865;28;103386;-56
2023/09/25 05:47:52;;;;;;;;;;;;;;;9.69;44.68;101819.50;4956834;28;100366;-56
2023/09/25 05:50:19;;;;;;;;;;;;;;;9.73;44.99;101827.94;4964298;28;98092;-56
2023/09/25 05:52:45;;;;;;;;;;;;;;;9.77;45.16;101818.34;4943085;28;98178;-56
2023/09/25 05:55:11;;;;;;;;;;;;;;;9.79;44.47;101814.38;4957449;28;98173;-61
2023/09/25 05:57:37;;;;;;;;;;;;;;;9.84;44.53;101825.28;4929127;28;99560;-56
2023/09/25 06:00:11;;;;;;;;;;;;;;;9.88;44.45;101814.88;4939033;28;98126;-61
2023/09/25 06:02:38;;;;;;;;;;;;;;;9.90;44.51;101814.63;4944668;27;101911;-55
2023/09/25 06:05:05;;;;;;;;;;;;;;;9.94;44.85;101818.50;4947721;28;98390;-61
2023/09/25 06:07:31;;;;;;;;;;;;;;;9.99;44.74;101822.19;4943997;28;98874;-55
2023/09/25 06:09:57;;;;;;;;;;;;;;;10.02;44.21;101821.72;4941846;28;101359;-56
2023/09/25 06:12:23;;;;;;;;;;;;;;;10.08;45.08;101825.34;4944237;28;98494;-56
2023/09/25 06:14:49;;;;;;;;;;;;;;;10.13;44.69;101821.97;4958912;28;125524;-56
2023/09/25 06:17:15;;;;;;;;;;;;;;;10.18;44.70;101836.41;4947135;28;98225;-56
2023/09/25 06:19:41;;;;;;;;;;;;;;;10.25;44.90;101839.81;4953082;28;100281;-61
2023/09/25 06:22:07;;;;;;;;;;;;;;;10.31;44.71;101838.91;4954051;28;98161;-55
2023/09/25 06:24:33;;;;;;;;;;;;;;;10.36;44.99;101834.69;4959320;28;100946;-56
2023/09/25 06:26:59;;;;;;;;;;;;;;;10.43;44.44;101830.00;4945016;28;98796;-61
2023/09/25 06:29:25;;;;;;;;;;;;;;;10.52;44.44;101834.81;4978572;27;98825;-55
2023/09/25 06:31:52;;;;;;;;;;;;;;;10.65;44.61;101841.03;4976189;27;126624;-55
2023/09/25 06:34:18;;;;;;;;;;;;;;;10.78;44.38;101835.41;4945439;28;98255;-55
2023/09/25 06:36:44;;;;;;;;;;;;;;;10.91;44.74;101837.84;4964321;28;98137;-55
2023/09/25 06:39:10;;;;;;;;;;;;;;;10.98;44.65;101838.56;4922728;28;97953;-61
2023/09/25 06:41:37;;;;;;;;;;;;;;;11.02;44.41;101834.31;4962701;28;98174;-61
2023/09/25 06:44:05;;;;;;;;;;;;;;;11.09;44.63;101833.38;4946679;28;99080;-55
2023/09/25 06:46:32;;;;;;;;;;;;;;;11.16;44.30;101826.81;4944268;28;98391;-61
2023/09/25 06:48:59;;;;;;;;;;;;;;;11.23;44.63;101838.25;4962859;28;100553;-56
2023/09/25 06:51:26;;;;;;;;;;;;;;;11.31;44.40;101827.09;4946522;28;98260;-60
2023/09/25 06:53:52;;;;;;;;;;;;;;;11.40;44.58;101835.66;4977633;27;98072;-61
2023/09/25 06:56:18;;;;;;;;;;;;;;;11.49;44.44;101836.09;4948162;28;98934;-61
2023/09/25 06:58:44;;;;;;;;;;;;;;;11.58;44.58;101839.22;4966834;28;98165;-60
2023/09/25 07:01:10;;;;;;;;;;;;;;;11.67;44.43;101832.34;4926416;28;98099;-56
2023/09/25 07:03:36;;;;;;;;;;;;;;;11.77;44.29;101836.09;4967861;28;99024;-61
2023/09/25 07:06:02;;;;;;;;;;;;;;;11.87;44.53;101834.66;4958704;28;98193;-61
2023/09/25 07:08:30;;;;;;;;;;;;;;;11.97;44.47;101821.31;4976055;27;98335;-55
2023/09/25 07:10:58;;;;;;;;;;;;;;;12.08;44.37;101823.16;4945029;28;99770;-61
2023/09/25 07:13:24;;;;;;;;;;;;;;;12.19;44.37;101826.84;4959392;27;98049;-61
2023/09/25 07:15:50;;;;;;;;;;;;;;;12.31;44.21;101822.19;4931750;28;99939;-61
2023/09/25 07:18:19;;;;;;;;;;;;;;;12.41;44.25;101819.63;4952928;28;98772;-61
2023/09/25 07:20:52;;;;;;;;;;;;;;;12.53;44.29;101827.63;4968537;28;99916;-61
2023/09/25 07:23:18;;;;;;;;;;;;;;;12.69;44.23;101816.00;4965927;28;98127;-55
2023/09/25 07:25:44;;;;;;;;;;;;;;;12.85;44.05;101814.34;4963161;28;97858;-56
2023/09/25 07:28:11;;;;;;;;;;;;;;;12.99;44.22;101820.19;4965702;28;101111;-56
2023/09/25 07:30:44;;;;;;;;;;;;;;;13.10;43.99;101811.13;4932754;28;100301;-61
2023/09/25 07:33:12;;;;;;;;;;;;;;;13.23;43.95;101813.47;4966381;28;98361;-56
2023/09/25 07:35:38;;;;;;;;;;;;;;;13.46;43.88;101809.69;4925960;28;98375;-61
2023/09/25 07:38:04;;;;;;;;;;;;;;;13.73;43.82;101819.72;4942311;28;98222;-61
2023/09/25 07:40:33;;;;;;;;;;;;;;;13.87;43.91;101815.53;4926695;28;99827;-61
2023/09/25 07:42:59;;;;;;;;;;;;;;;14.04;43.84;101806.47;4946898;28;99337;-56
2023/09/25 07:45:25;;;;;;;;;;;;;;;14.17;43.57;101797.88;4962532;28;102937;-56
2023/09/25 07:47:54;;;;;;;;;;;;;;;14.32;43.91;101791.75;4952374;28;98013;-56
2023/09/25 07:50:24;;;;;;;;;;;;;;;14.50;43.83;101799.50;4932293;28;99882;-56
2023/09/25 07:52:54;;;;;;;;;;;;;;;14.71;43.58;101795.03;4973633;27;98584;-61
2023/09/25 07:55:24;;;;;;;;;;;;;;;14.93;43.45;101789.44;4948207;28;98606;-61
2023/09/25 07:57:50;;;;;;;;;;;;;;;15.22;43.31;101793.38;4974915;27;98863;-56
2023/09/25 08:02:47;;;;;;;;;;;;;;;16.58;42.12;101786.66;4975035;27;98151;-56
2023/09/25 08:05:15;;;;;;;;;;;;;;;17.04;41.86;101781.13;4934802;28;98299;-61
2023/09/25 08:07:41;;;;;;;;;;;;;;;17.75;41.41;101779.91;4963293;28;98343;-62
2023/09/25 08:10:08;;;;;;;;;;;;;;;19.29;40.03;101775.31;4948879;28;99832;-62
2023/09/25 08:12:34;;;;;;;;;;;;;;;20.73;38.91;101776.53;4955810;28;101663;-56
2023/09/25 08:15:00;;;;;;;;;;;;;;;21.71;38.74;101776.88;4948341;28;99966;-56
2023/09/25 08:17:26;;;;;;;;;;;;;;;23.86;36.88;101781.88;4952296;28;126432;-62
2023/09/25 08:19:52;;;;;;;;;;;;;;;25.02;36.45;101789.09;4947243;28;99521;-62
2023/09/25 08:22:20;;;;;;;;;;;;;;;24.38;37.86;101801.03;4949369;28;99454;-62
2023/09/25 08:24:47;;;;;;;;;;;;;;;24.71;38.08;101806.75;4933663;28;98098;-62
2023/09/25 08:27:13;;;;;;;;;;;;;;;26.20;37.30;101786.84;4947744;28;97896;-62
2023/09/25 08:29:39;;;;;;;;;;;;;;;29.70;34.50;101787.38;4962852;28;98795;-63
2023/09/25 08:32:07;;;;;;;;;;;;;;;31.81;33.21;101803.88;4962367;28;98000;-57
2023/09/25 08:34:34;;;;;;;;;;;;;;;33.33;32.81;101805.56;4925744;28;98548;-57
2023/09/25 08:37:00;;;;;;;;;;;;;;;34.42;32.11;101798.66;4960400;28;102035;-57
2023/09/25 08:39:26;;;;;;;;;;;;;;;34.99;31.68;101797.88;4963513;28;114021;-57
2023/09/25 08:41:52;;;;;;;;;;;;;;;34.89;32.28;101793.03;4978439;27;98258;-62
2023/09/25 08:44:18;;;;;;;;;;;;;;;34.14;33.27;101779.88;4946461;28;98348;-62
2023/09/25 08:46:44;;;;;;;;;;;;;;;32.97;34.50;101785.81;4966883;28;103666;-63
2023/09/25 08:49:10;;;;;;;;;;;;;;;32.07;35.53;101773.13;4961782;28;98625;-56
2023/09/25 08:51:38;;;;;;;;;;;;;;;31.08;36.43;101753.19;4964403;28;98199;-62
2023/09/25 08:54:05;;;;;;;;;;;;;;;30.16;37.13;101758.91;4931839;28;98090;-62
2023/09/25 08:56:31;;;;;;;;;;;;;;;29.40;37.96;101755.78;4963558;28;98234;-62
2023/09/25 08:59:05;;;;;;;;;;;;;;;28.80;38.48;101758.81;4947553;28;98237;-56
2023/09/25 09:01:31;;;;;;;;;;;;;;;28.35;38.85;101751.78;4940278;28;99609;-62
2023/09/25 09:03:58;;;;;;;;;;;;;;;28.04;39.38;101750.59;4960498;28;98250;-62
2023/09/25 09:06:24;;;;;;;;;;;;;;;27.82;39.16;101746.44;4961025;28;98356;-62
2023/09/25 09:08:51;;;;;;;;;;;;;;;27.74;39.61;101752.94;4962694;28;98890;-62
2023/09/25 09:11:18;;;;;;;;;;;;;;;27.73;39.52;101751.31;4941137;28;98901;-63
2023/09/25 09:13:45;;;;;;;;;;;;;;;27.76;39.44;101750.66;4945263;28;106256;-62
2023/09/25 09:16:12;;;;;;;;;;;;;;;27.67;39.38;101741.69;4959435;28;107670;-62
2023/09/25 09:18:38;;;;;;;;;;;;;;;27.48;39.69;101741.53;4962103;28;98349;-62
2023/09/25 09:21:04;;;;;;;;;;;;;;;27.44;39.80;101737.84;4974706;27;99951;-57
2023/09/25 09:23:40;;;;;;;;;;;;;;;27.51;39.86;101738.03;4974596;27;116277;-57
2023/09/25 09:26:16;;;;;;;;;;;;;;;27.61;39.50;101738.34;4944457;28;98534;-57
2023/09/25 09:28:43;;;;;;;;;;;;;;;27.69;39.75;101736.56;4949188;28;99560;-56
2023/09/25 09:31:10;;;;;;;;;;;;;;;27.71;38.71;101727.94;4965797;28;98033;-57
2023/09/25 09:33:42;;;;;;;;;;;;;;;27.77;39.41;101730.09;4971913;27;98098;-57
2023/09/25 09:36:12;;;;;;;;;;;;;;;27.94;39.11;101730.91;4948774;28;100898;-57
2023/09/25 09:38:41;;;;;;;;;;;;;;;28.22;39.24;101730.84;4961725;28;98554;-57
2023/09/25 09:41:08;;;;;;;;;;;;;;;28.58;39.14;101729.81;4921944;28;99865;-63
2023/09/25 09:43:34;;;;;;;;;;;;;;;28.92;38.40;101730.97;4947903;28;97792;-63
2023/09/25 09:46:00;;;;;;;;;;;;;;;29.32;38.23;101727.09;4929828;28;99994;-57
2023/09/25 09:48:30;;;;;;;;;;;;;;;29.38;38.81;101733.16;4971817;27;98411;-57
2023/09/25 09:51:03;;;;;;;;;;;;;;;29.30;38.48;101724.69;4948387;28;98415;-63
2023/09/25 09:53:32;;;;;;;;;;;;;;;29.57;38.42;101716.53;4960793;28;98360;-63
2023/09/25 09:55:58;;;;;;;;;;;;;;;29.37;38.77;101717.69;4960522;28;98362;-63
2023/09/25 09:58:25;;;;;;;;;;;;;;;29.11;39.29;101713.56;4947185;28;98353;-57
2023/09/25 10:00:52;;;;;;;;;;;;;;;29.44;39.00;101709.50;4944915;28;98181;-57
2023/09/25 10:03:18;;;;;;;;;;;;;;;29.96;38.29;101695.00;4949240;28;98028;-57
2023/09/25 10:05:45;;;;;;;;;;;;;;;29.91;38.47;101703.66;4960906;28;98543;-63
2023/09/25 10:08:11;;;;;;;;;;;;;;;30.21;38.35;101697.44;4947078;28;100404;-63
2023/09/25 10:10:41;;;;;;;;;;;;;;;30.37;38.23;101700.88;4958836;28;98211;-63
2023/09/25 10:13:11;;;;;;;;;;;;;;;30.55;38.17;101688.03;4962738;28;98250;-63
2023/09/25 10:15:38;;;;;;;;;;;;;;;30.79;38.00;101686.03;4968982;27;110369;-62
2023/09/25 10:18:06;;;;;;;;;;;;;;;30.70;38.27;101686.28;4959704;28;98151;-57
2023/09/25 10:20:40;;;;;;;;;;;;;;;30.67;38.30;101689.81;4961432;28;99005;-63
2023/09/25 10:23:06;;;;;;;;;;;;;;;30.47;38.59;101694.69;4942377;28;98348;-57
2023/09/25 10:25:52;;;;;;;;;;;;;;;30.27;38.63;101691.19;4960663;28;99709;-55
2023/09/25 10:28:25;;;;;;;;;;;;;;;30.40;38.64;101682.63;4972001;27;98130;-55
2023/09/25 10:30:55;;;;;;;;;;;;;;;30.56;38.50;101680.50;4976378;27;104345;-56
2023/09/25 10:33:21;;;;;;;;;;;;;;;30.55;38.42;101693.59;4959586;28;102044;-61
2023/09/25 10:35:48;;;;;;;;;;;;;;;30.46;38.43;101686.72;4963384;28;98383;-61
2023/09/25 10:38:28;;;;;;;;;;;;;;;30.80;38.28;101685.63;4945738;28;98504;-61
2023/09/25 10:40:55;;;;;;;;;;;;;;;30.72;38.42;101691.44;4947653;28;97946;-56
2023/09/25 10:43:22;;;;;;;;;;;;;;;30.81;38.36;101686.44;4948951;28;98302;-55
2023/09/25 10:45:49;;;;;;;;;;;;;;;30.85;38.55;101678.97;4964344;28;98595;-55
2023/09/25 10:48:15;;;;;;;;;;;;;;;30.84;38.17;101679.31;4962852;28;98229;-61
2023/09/25 10:50:43;;;;;;;;;;;;;;;30.71;38.44;101678.72;4945945;28;97957;-55
2023/09/25 10:53:09;;;;;;;;;;;;;;;30.66;38.41;101670.72;4959868;28;98518;-61
2023/09/25 10:55:36;;;;;;;;;;;;;;;30.91;38.38;101674.66;4933416;28;98391;-61
2023/09/25 10:58:03;;;;;;;;;;;;;;;31.23;37.49;101669.47;4979866;27;98176;-55
2023/09/25 11:00:29;;;;;;;;;;;;;;;31.28;37.68;101671.09;4949376;28;98000;-55
2023/09/25 11:02:56;;;;;;;;;;;;;;;31.25;38.05;101663.53;4950169;28;98616;-61
2023/09/25 11:05:22;;;;;;;;;;;;;;;31.73;37.84;101661.66;4965209;28;99897;-56
2023/09/25 11:07:48;;;;;;;;;;;;;;;31.88;37.56;101662.63;4966444;28;98217;-55
2023/09/25 11:10:15;;;;;;;;;;;;;;;31.83;37.84;101671.31;4977856;27;99448;-56
2023/09/25 11:12:41;;;;;;;;;;;;;;;32.97;36.89;101660.19;4978073;27;98138;-56
2023/09/25 11:15:16;;;;;;;;;;;;;;;33.65;36.21;101661.19;4975916;27;98334;-62
2023/09/25 11:17:43;;;;;;;;;;;;;;;33.96;36.40;101654.03;4959764;28;99734;-62
2023/09/25 11:20:18;;;;;;;;;;;;;;;34.26;35.90;101647.22;4941172;28;98348;-62
2023/09/25 11:22:47;;;;;;;;;;;;;;;33.65;36.68;101646.44;4943738;28;98611;-56
2023/09/25 11:25:15;;;;;;;;;;;;;;;34.13;36.25;101632.06;4962468;28;99969;-62
2023/09/25 11:27:53;;;;;;;;;;;;;;;34.25;36.17;101628.84;4950056;28;98261;-56
2023/09/25 11:30:20;;;;;;;;;;;;;;;34.29;36.62;101626.84;4946889;28;98056;-56
2023/09/25 11:32:47;;;;;;;;;;;;;;;34.39;36.64;101620.44;4946284;28;97922;-56
2023/09/25 11:35:17;;;;;;;;;;;;;;;34.48;36.52;101614.41;4965637;28;97900;-56
2023/09/25 11:38:00;;;;;;;;;;;;;;;34.49;36.29;101609.63;4958505;27;98463;-56
2023/09/25 11:40:30;;;;;;;;;;;;;;;34.47;36.46;101610.00;4971529;27;99663;-62
2023/09/25 11:42:56;;;;;;;;;;;;;;;34.45;36.48;101609.59;4920712;28;98190;-62
2023/09/25 11:45:25;;;;;;;;;;;;;;;34.46;36.53;101600.00;4945330;28;98162;-56
2023/09/25 11:47:51;;;;;;;;;;;;;;;34.34;36.64;101604.03;4976680;27;98626;-62
2023/09/25 11:50:18;;;;;;;;;;;;;;;34.30;36.90;101600.44;4976858;27;100244;-56
2023/09/25 11:52:44;;;;;;;;;;;;;;;34.18;36.95;101596.09;4973799;27;98231;-56
2023/09/25 11:55:16;;;;;;;;;;;;;;;34.12;36.83;101591.31;4959803;28;98166;-56
2023/09/25 11:57:42;;;;;;;;;;;;;;;34.07;36.82;101588.91;4957722;28;98241;-62
2023/09/25 12:00:13;;;;;;;;;;;;;;;33.93;36.74;101595.31;4959403;28;99247;-61
2023/09/25 12:02:40;;;;;;;;;;;;;;;33.68;37.10;101590.53;4959059;28;98627;-56
2023/09/25 12:05:07;;;;;;;;;;;;;;;33.38;37.59;101584.50;4961696;28;98577;-62
2023/09/25 12:07:36;;;;;;;;;;;;;;;32.94;37.78;101585.63;4928377;28;97942;-56
2023/09/25 12:10:06;;;;;;;;;;;;;;;32.66;37.75;101594.63;4939512;28;101236;-62
2023/09/25 12:12:39;;;;;;;;;;;;;;;32.44;38.14;101597.31;4978284;27;98087;-56
2023/09/25 12:15:08;;;;;;;;;;;;;;;32.14;38.03;101591.13;4957685;28;99461;-56
2023/09/25 12:17:35;;;;;;;;;;;;;;;31.91;38.35;101583.00;4945222;28;98373;-62
2023/09/25 12:20:06;;;;;;;;;;;;;;;31.64;38.64;101590.75;4964325;28;98086;-56
2023/09/25 12:22:32;;;;;;;;;;;;;;;31.40;38.80;101581.78;4950302;28;98131;-56
2023/09/25 12:24:58;;;;;;;;;;;;;;;31.27;38.66;101583.19;4941967;28;98219;-56
2023/09/25 12:27:24;;;;;;;;;;;;;;;31.15;38.87;101583.47;4965259;28;98172;-61
2023/09/25 12:29:50;;;;;;;;;;;;;;;31.04;38.95;101572.22;4925826;28;99293;-56
2023/09/25 12:32:16;;;;;;;;;;;;;;;30.93;39.04;101572.13;4929385;28;99116;-62
2023/09/25 12:34:42;;;;;;;;;;;;;;;30.73;39.10;101577.06;4962395;28;117373;-62
2023/09/25 12:37:08;;;;;;;;;;;;;;;30.53;39.11;101573.56;4947010;28;98358;-61
2023/09/25 12:39:35;;;;;;;;;;;;;;;30.38;39.24;101577.38;4919782;28;100649;-61